Kolmaarden Stroemsfors, Sweden

11:14 PM CET on February 09, 2016 (GMT +0100)
Krokek | | Change Station
CLOSE
Current Station
Personal Weather Station
Location: Kolmrden, stergtlands ln
Elevation: 161 ft
Nearby Weather Stations

Elev 161 ft 58.67 °N, 16.36 °E | Updated 2 seconds ago

Overcast
Overcast
38.5 °F
Feels Like 38 °F
N
0.0
Wind Variable Wind from North
Gusts 0.7 mph

Today
High -- | Low -- °F
--% Chance of Precip.
Yesterday
High -- | Low -- °F
Precip. -- in
Pressure 29.09 in
Visibility 6.2 miles
Clouds Overcast 7600 ft
Windchill 38 °F
Dew Point 34 °F
Humidity 83%
Rainfall 0.04 in
Snow Depth Not available.
7:44 AM 4:33 PM
New Moon, 2% visible
METAR ESSP 092150Z AUTO 19005KT 9999 OVC076/// 05/02 Q0985
Pressure 29.09 in
Visibility 6.2 miles
Clouds Overcast 7600 ft
Windchill 38 °F
Dew Point 34 °F
Humidity 83%
Rainfall 0.04 in
Snow Depth Not available.
7:44 AM 4:33 PM
New Moon, 2% visible
METAR ESSP 092150Z AUTO 19005KT 9999 OVC076/// 05/02 Q0985

10-Day Weather Forecast

Almanac

Astronomy

Feb. 09, 2016 Rise Set
Actual Time
Civil Twilight
Nautical Twilight
Astronomical Twilight
Moon
Length of Visible Light
Length of Day
Tomorrow will be .
, % of the Moon is Illuminated

Today's Extremes

Country Highs Country Lows

Community

WunderPhotos

Upload Photos

1,891,719 photos uploaded!

WunderBlog® & News

Nearby

Air Quality

  Air Quality AQ Index Pollutant
Not available.

Snow Depth

Station Depth Elevation

Earthquake Activity

City Distance Mag. Time & Date
Minimum magnitude displayed is 2.5.

Coastal Water Temperatures

Place Temperature

Stations

Nearby Weather Stations

Station Location Temp. Windchill Dew Point Humidity Wind Precip. Elev Updated Type